createdAt,value
2023-05-05T00:00:14.678Z,0.0000
2023-05-05T00:01:15.491Z,0.0000
2023-05-05T00:02:15.875Z,0.0000
2023-05-05T00:03:17.739Z,0.0000
2023-05-05T00:04:22.483Z,0.0000
2023-05-05T00:05:24.980Z,0.0000
2023-05-05T00:06:25.517Z,0.0000
2023-05-05T00:07:27.448Z,0.0000
2023-05-05T00:08:29.352Z,0.0000
2023-05-05T00:09:30.363Z,0.0000
2023-05-05T00:10:32.255Z,0.0000
2023-05-05T00:11:34.424Z,0.0000
2023-05-05T00:12:35.502Z,0.0000
2023-05-05T00:13:36.265Z,0.0000
2023-05-05T00:14:37.172Z,0.0000
2023-05-05T00:15:38.746Z,0.0000
2023-05-05T00:16:39.243Z,0.0000
2023-05-05T00:17:40.766Z,0.0000
2023-05-05T00:18:41.986Z,0.0000
2023-05-05T00:19:43.451Z,0.0000
2023-05-05T00:20:44.544Z,0.0000
2023-05-05T00:21:46.328Z,0.0000
2023-05-05T00:22:48.255Z,0.0000
2023-05-05T00:23:51.579Z,0.0000
2023-05-05T00:24:53.664Z,0.0000
2023-05-05T00:25:55.368Z,0.0000
2023-05-05T00:26:57.407Z,0.0000
2023-05-05T00:27:57.483Z,0.0000
2023-05-05T00:28:59.433Z,0.0000
2023-05-05T00:30:32.665Z,0.0000
2023-05-05T00:31:34.034Z,0.0000
2023-05-05T00:32:37.742Z,0.0000
2023-05-05T00:33:40.119Z,0.0000
2023-05-05T00:34:42.763Z,0.0000
2023-05-05T00:35:42.996Z,0.0000
2023-05-05T00:36:43.274Z,0.0000
2023-05-05T00:38:12.497Z,0.0000
2023-05-05T00:39:14.178Z,0.0000
2023-05-05T00:40:16.615Z,0.0000
2023-05-05T00:41:19.935Z,0.0000
2023-05-05T00:42:22.370Z,0.0000
2023-05-05T00:43:23.583Z,0.0000
2023-05-05T00:44:26.355Z,0.0000
2023-05-05T00:45:29.473Z,0.0000
2023-05-05T00:46:30.708Z,0.0000
2023-05-05T00:47:33.107Z,0.0000
2023-05-05T00:48:33.198Z,0.0000
2023-05-05T00:49:35.443Z,0.0000
2023-05-05T00:50:42.045Z,0.0000
2023-05-05T00:52:08.716Z,0.0000
2023-05-05T00:53:10.974Z,0.0000
2023-05-05T00:54:12.310Z,0.0000
2023-05-05T00:55:13.588Z,0.0000
2023-05-05T00:56:17.350Z,0.0000
2023-05-05T00:57:19.393Z,0.0000
2023-05-05T00:58:19.453Z,0.0000
2023-05-05T00:59:20.268Z,0.0000
2023-05-05T01:00:21.944Z,0.0000
2023-05-05T01:01:24.651Z,0.0000
2023-05-05T01:02:28.001Z,0.0000
2023-05-05T01:03:28.755Z,0.0000
2023-05-05T01:04:30.089Z,0.0000
2023-05-05T01:05:30.926Z,0.0000
2023-05-05T01:06:34.543Z,0.0000
2023-05-05T01:07:34.890Z,0.0000
2023-05-05T01:08:35.039Z,0.0000
2023-05-05T01:09:38.147Z,0.0000
2023-05-05T01:10:42.212Z,0.0000
2023-05-05T01:11:43.168Z,0.0000
2023-05-05T01:13:11.143Z,0.0000
2023-05-05T01:14:12.955Z,0.0000
2023-05-05T01:15:15.632Z,0.0000
2023-05-05T01:16:18.112Z,0.0000
2023-05-05T01:17:18.522Z,0.0000
2023-05-05T01:18:20.757Z,0.0000
2023-05-05T01:19:25.623Z,0.0000
2023-05-05T01:20:26.397Z,0.0000
2023-05-05T01:21:56.491Z,0.0000
2023-05-05T01:23:00.234Z,0.0000
2023-05-05T01:24:00.367Z,0.0000
2023-05-05T01:25:06.568Z,0.0000
2023-05-05T01:26:34.074Z,0.0000
2023-05-05T01:27:34.865Z,0.0000
2023-05-05T01:29:03.446Z,0.0000
2023-05-05T01:30:04.112Z,0.0000
2023-05-05T01:31:36.359Z,0.0000
2023-05-05T01:32:39.685Z,0.0000
2023-05-05T01:33:40.570Z,0.0000
2023-05-05T01:34:44.403Z,0.0000
2023-05-05T01:35:45.418Z,0.0000
2023-05-05T01:36:47.985Z,0.0000
2023-05-05T01:37:49.420Z,0.0000
2023-05-05T01:38:51.324Z,0.0000
2023-05-05T01:39:51.483Z,0.0000
2023-05-05T01:40:54.155Z,0.0000
2023-05-05T01:41:56.983Z,0.0000
2023-05-05T01:43:02.595Z,0.0000
2023-05-05T01:44:02.643Z,0.0000
2023-05-05T01:45:07.910Z,0.0000
2023-05-05T01:46:10.028Z,0.0000
2023-05-05T01:47:11.455Z,0.0000
2023-05-05T01:48:15.264Z,0.0000
2023-05-05T01:49:18.956Z,0.0000
2023-05-05T01:50:20.679Z,0.0000
2023-05-05T01:51:22.327Z,0.0000
2023-05-05T01:52:25.608Z,0.0000
2023-05-05T01:53:27.620Z,0.0000
2023-05-05T01:54:27.552Z,0.0000
2023-05-05T01:55:32.077Z,0.0000
2023-05-05T01:56:35.757Z,0.0000
2023-05-05T01:57:37.865Z,0.0000
2023-05-05T01:58:41.171Z,0.0000
2023-05-05T01:59:43.315Z,0.0000
2023-05-05T02:00:43.462Z,0.0000
2023-05-05T02:02:47.074Z,0.0000
2023-05-05T02:03:49.055Z,0.0000
2023-05-05T02:04:49.165Z,0.0000
2023-05-05T02:05:49.549Z,0.0000
2023-05-05T02:06:53.282Z,0.0000
2023-05-05T02:07:55.527Z,0.0000
2023-05-05T02:08:57.776Z,0.0000
2023-05-05T02:10:01.537Z,0.0000
2023-05-05T02:11:04.083Z,0.0000
2023-05-05T02:12:32.065Z,0.0000
2023-05-05T02:14:04.586Z,0.0000
2023-05-05T02:15:09.588Z,0.0000
2023-05-05T02:16:12.965Z,0.0000
2023-05-05T02:18:42.461Z,0.0000
2023-05-05T02:19:46.302Z,0.0000
2023-05-05T02:20:48.573Z,0.0000
2023-05-05T02:21:49.223Z,0.0000
2023-05-05T02:22:49.663Z,0.0000
2023-05-05T02:23:52.802Z,0.0000
2023-05-05T02:24:55.034Z,0.0000
2023-05-05T02:26:25.029Z,0.0000
2023-05-05T02:27:29.549Z,0.0000
2023-05-05T02:28:33.254Z,0.0000
2023-05-05T02:29:37.895Z,0.0000
2023-05-05T02:30:43.458Z,0.0000
2023-05-05T02:31:43.683Z,0.0000
2023-05-05T02:32:44.567Z,0.0000
2023-05-05T02:33:48.234Z,0.0000
2023-05-05T02:34:51.342Z,0.0000
2023-05-05T02:36:50.613Z,0.0000
2023-05-05T02:37:51.016Z,0.0000
2023-05-05T02:38:52.916Z,0.0000
2023-05-05T02:39:53.936Z,0.0000
2023-05-05T02:40:54.867Z,0.0000
2023-05-05T02:46:02.058Z,0.0000
2023-05-05T02:49:06.756Z,0.0000
2023-05-05T02:50:08.566Z,0.0000
2023-05-05T02:51:12.904Z,0.0000
2023-05-05T02:52:15.277Z,0.0000
2023-05-05T03:02:07.785Z,0.0000
2023-05-05T03:03:08.889Z,0.0000
2023-05-05T03:04:13.011Z,0.0000
2023-05-05T03:05:16.714Z,0.0000
2023-05-05T03:06:20.266Z,0.0000
2023-05-05T03:07:22.619Z,0.0000
2023-05-05T03:08:24.480Z,0.0000
2023-05-05T03:09:25.530Z,0.0000
2023-05-05T03:10:28.386Z,0.0000
2023-05-05T03:11:29.235Z,0.0000
2023-05-05T03:12:30.339Z,0.0000
2023-05-05T03:13:34.710Z,0.0000
2023-05-05T03:14:37.128Z,0.0000
2023-05-05T03:15:38.874Z,0.0000
2023-05-05T03:16:40.006Z,0.0000
2023-05-05T03:17:42.154Z,0.0000
2023-05-05T03:18:47.136Z,0.0000
2023-05-05T03:19:50.435Z,0.0000
2023-05-05T03:20:54.680Z,0.0000
2023-05-05T03:21:56.882Z,0.0000
2023-05-05T03:23:02.668Z,0.0000
2023-05-05T03:24:31.082Z,0.0000
2023-05-05T03:25:32.343Z,0.0000
2023-05-05T03:26:36.038Z,0.0000
2023-05-05T03:27:36.417Z,0.0000
2023-05-05T03:30:41.160Z,0.0000
2023-05-05T03:31:44.547Z,0.0000
2023-05-05T03:32:46.808Z,0.0000
2023-05-05T03:33:47.507Z,0.0000
2023-05-05T03:46:46.671Z,0.0000
2023-05-05T03:47:47.355Z,0.0000
2023-05-05T03:52:51.919Z,0.0000
2023-05-05T03:53:52.531Z,0.0000
2023-05-05T03:55:19.478Z,0.0000
2023-05-05T03:56:22.063Z,0.0000
2023-05-05T03:57:26.280Z,0.0000
2023-05-05T03:58:31.923Z,0.0000
2023-05-05T03:59:32.378Z,5.3693
2023-05-05T04:30:21.609Z,45.0000
2023-05-05T04:31:26.619Z,50.6250
2023-05-05T04:40:49.442Z,49.3750
2023-05-05T04:41:57.088Z,51.9231
2023-05-05T04:43:00.515Z,56.2500
2023-05-05T04:44:11.359Z,60.9375
2023-05-05T04:52:47.827Z,78.7500
2023-05-05T04:53:49.691Z,78.7500
2023-05-05T04:54:52.635Z,82.9688
2023-05-05T04:55:56.772Z,84.3750
2023-05-05T05:01:58.255Z,102.5000
2023-05-05T05:03:00.106Z,108.7500
2023-05-05T05:08:26.469Z,106.8750
2023-05-05T05:13:29.089Z,119.5312
2023-05-05T05:14:32.892Z,124.6154
2023-05-05T05:15:36.648Z,129.3750
2023-05-05T05:16:38.199Z,129.3750
2023-05-05T05:17:40.378Z,131.5385
2023-05-05T05:18:40.687Z,135.0000
2023-05-05T05:19:40.856Z,135.0000
2023-05-05T05:43:12.515Z,0.0000
2023-05-05T05:44:14.743Z,0.0000
2023-05-05T05:45:17.119Z,0.0000
2023-05-05T05:46:17.497Z,0.0000
2023-05-05T05:59:18.911Z,235.6250
2023-05-05T06:00:19.585Z,236.7188
2023-05-05T06:01:20.829Z,241.8750
2023-05-05T06:02:25.867Z,241.8750
2023-05-05T06:03:29.459Z,246.9886
2023-05-05T06:08:41.185Z,247.5000
2023-05-05T06:09:43.203Z,249.9107
2023-05-05T06:10:43.675Z,270.4327
2023-05-05T06:11:44.547Z,279.8438
2023-05-05T06:13:14.133Z,289.4712
2023-05-05T06:14:19.554Z,292.5000
2023-05-05T06:15:22.456Z,294.3750
2023-05-05T06:28:17.029Z,0.0000
2023-05-05T06:29:17.630Z,0.0000
2023-05-05T06:30:50.592Z,286.4423
2023-05-05T06:32:24.119Z,288.1250
2023-05-05T06:33:51.925Z,291.6346
2023-05-05T06:34:54.029Z,288.6328
2023-05-05T06:35:56.823Z,290.6250
2023-05-05T06:37:56.113Z,292.5000
2023-05-05T06:45:09.329Z,363.1250
2023-05-05T06:46:37.395Z,383.7054
2023-05-05T06:48:08.062Z,410.2232
2023-05-05T06:49:10.626Z,404.4886
2023-05-05T06:50:38.626Z,406.4062
2023-05-05T06:51:42.163Z,428.7981
2023-05-05T06:53:10.485Z,466.1250
2023-05-05T06:54:43.764Z,471.2019
2023-05-05T06:56:12.162Z,478.1250
2023-05-05T06:57:40.951Z,478.1250
2023-05-05T06:59:09.775Z,494.1346
2023-05-05T07:00:40.691Z,499.0179
2023-05-05T07:02:09.397Z,467.3438
2023-05-05T07:03:40.899Z,437.0192
2023-05-05T07:04:44.186Z,415.5000
2023-05-05T07:06:14.391Z,416.6827
2023-05-05T07:07:43.707Z,424.0385
2023-05-05T07:09:16.936Z,418.8462
2023-05-05T07:10:16.194Z,435.9375
2023-05-05T07:11:49.168Z,419.5312
2023-05-05T07:13:49.577Z,501.4904
2023-05-05T07:15:27.450Z,591.9231
2023-05-05T07:16:50.100Z,604.9039
2023-05-05T07:18:21.387Z,611.1161
2023-05-05T07:19:51.716Z,634.4196
2023-05-05T07:21:20.609Z,610.7143
2023-05-05T07:22:22.208Z,484.0809
2023-05-05T07:23:52.170Z,524.3304
2023-05-05T07:25:20.991Z,585.8036
2023-05-05T07:26:52.377Z,608.2500
2023-05-05T07:28:23.114Z,641.2500
2023-05-05T07:29:53.768Z,622.8750
2023-05-05T07:30:54.699Z,534.3750
2023-05-05T07:32:25.050Z,445.8750
2023-05-05T07:33:56.993Z,436.2891
2023-05-05T07:35:28.670Z,440.8594
2023-05-05T07:36:57.888Z,438.3750
2023-05-05T07:38:27.904Z,444.3750
2023-05-05T07:39:58.330Z,459.0000
2023-05-05T07:41:27.350Z,462.0000
2023-05-05T07:42:58.305Z,457.1250
2023-05-05T07:45:29.334Z,428.3036
2023-05-05T07:47:01.783Z,0.0000
2023-05-05T07:48:32.285Z,0.0000
2023-05-05T07:50:03.439Z,405.0000
2023-05-05T07:51:34.979Z,399.7500
2023-05-05T07:53:13.610Z,399.7500
2023-05-05T07:54:05.902Z,396.7788
2023-05-05T07:55:37.676Z,405.0000
2023-05-05T07:57:07.778Z,403.8750
2023-05-05T07:58:38.936Z,409.1250
2023-05-05T08:00:11.124Z,401.2500
2023-05-05T08:01:42.421Z,414.3750
2023-05-05T08:03:12.877Z,433.5000
2023-05-05T08:04:45.087Z,0.0000
2023-05-05T08:06:15.460Z,0.0000
2023-05-05T08:07:47.331Z,0.0000
2023-05-05T08:09:16.331Z,429.0000
2023-05-05T08:10:47.712Z,426.3750
2023-05-05T08:12:16.546Z,415.8750
2023-05-05T08:13:46.209Z,405.3750
2023-05-05T08:15:17.490Z,395.9375
2023-05-05T08:16:49.284Z,398.1696
2023-05-05T08:18:19.998Z,392.6250
2023-05-05T08:19:48.948Z,397.7206
2023-05-05T08:21:51.800Z,402.9911
2023-05-05T08:24:56.024Z,424.3359
2023-05-05T08:26:57.656Z,433.1250
2023-05-05T08:28:29.185Z,419.6250
2023-05-05T08:30:01.280Z,429.2578
2023-05-05T08:31:31.043Z,432.7500
2023-05-05T08:33:03.589Z,428.9062
2023-05-05T08:34:33.428Z,444.0000
2023-05-05T08:35:35.175Z,452.8125
2023-05-05T08:37:05.644Z,0.0000
2023-05-05T08:38:36.044Z,500.6250
2023-05-05T08:40:08.924Z,524.5312
2023-05-05T08:41:39.195Z,552.6562
2023-05-05T08:42:39.831Z,571.2500
2023-05-05T08:43:42.950Z,588.8487
2023-05-05T08:45:14.354Z,600.5515
2023-05-05T08:46:44.922Z,612.7941
2023-05-05T08:48:13.834Z,629.3383
2023-05-05T08:49:43.608Z,655.4780
2023-05-05T08:51:16.097Z,665.0000
2023-05-05T08:52:48.087Z,669.7059
2023-05-05T08:54:17.779Z,670.6985
2023-05-05T08:55:48.403Z,676.8750
2023-05-05T08:57:19.403Z,669.6875
2023-05-05T08:58:50.687Z,664.0625
2023-05-05T09:00:19.953Z,657.1323
2023-05-05T09:01:50.721Z,648.1250
2023-05-05T09:03:22.084Z,645.0000
2023-05-05T09:04:51.920Z,640.3125
2023-05-05T09:06:21.676Z,638.4375
2023-05-05T09:07:52.273Z,632.8125
2023-05-05T09:09:22.030Z,639.6875
2023-05-05T09:10:51.812Z,651.5625
2023-05-05T09:12:22.142Z,661.8750
2023-05-05T09:13:53.407Z,670.0000
2023-05-05T09:15:24.785Z,670.6250
2023-05-05T09:16:56.072Z,665.6250
2023-05-05T09:18:26.262Z,649.3750
2023-05-05T09:19:56.070Z,623.7500
2023-05-05T09:21:26.799Z,598.1250
2023-05-05T09:22:58.260Z,583.4375
2023-05-05T09:24:30.257Z,590.3125
2023-05-05T09:26:00.717Z,618.7500
2023-05-05T09:27:30.723Z,635.9375
2023-05-05T09:29:00.974Z,650.9375
2023-05-05T09:30:32.265Z,676.8750
2023-05-05T09:32:03.088Z,697.5000
2023-05-05T09:33:34.693Z,711.2500
2023-05-05T09:35:05.033Z,734.2280
2023-05-05T09:36:34.348Z,739.6875
2023-05-05T09:38:05.907Z,745.0000
2023-05-05T09:39:36.726Z,744.3750
2023-05-05T09:41:08.268Z,770.6250
2023-05-05T09:42:38.889Z,782.5000
2023-05-05T09:44:09.669Z,786.2500
2023-05-05T09:45:41.366Z,766.2500
2023-05-05T09:47:25.981Z,770.0000
2023-05-05T09:48:43.423Z,769.6875
2023-05-05T09:50:13.764Z,777.1875
2023-05-05T09:51:43.831Z,791.2500
2023-05-05T09:53:13.168Z,794.0625
2023-05-05T09:54:43.516Z,804.3750
2023-05-05T09:56:12.844Z,822.1875
2023-05-05T09:57:43.147Z,846.5625
2023-05-05T09:59:12.901Z,888.1250
2023-05-05T10:00:43.253Z,923.4375
2023-05-05T10:02:13.606Z,932.1875
2023-05-05T10:03:43.985Z,940.6250
2023-05-05T10:05:14.364Z,955.9375
2023-05-05T10:06:43.515Z,966.2500
2023-05-05T10:08:13.875Z,975.6250
2023-05-05T10:09:44.171Z,986.5625
2023-05-05T10:11:13.474Z,998.7500
2023-05-05T10:12:43.782Z,993.1250
2023-05-05T10:14:14.535Z,980.9375
2023-05-05T10:15:45.852Z,974.0625
2023-05-05T10:17:16.265Z,968.7500
2023-05-05T10:18:45.535Z,975.0000
2023-05-05T10:20:14.799Z,991.8750
2023-05-05T10:21:44.065Z,1013.4375
2023-05-05T10:23:13.894Z,1036.8750
2023-05-05T10:24:45.407Z,1056.2500
2023-05-05T10:26:15.219Z,1052.8125
2023-05-05T10:27:44.875Z,1037.1875
2023-05-05T10:29:15.626Z,1052.8125
2023-05-05T10:30:45.004Z,1071.8750
2023-05-05T10:32:40.798Z,1061.5625
2023-05-05T10:33:45.074Z,1043.7500
2023-05-05T10:35:14.710Z,1017.1875
2023-05-05T10:36:44.993Z,998.7500
2023-05-05T10:38:15.724Z,978.4375
2023-05-05T10:39:45.027Z,945.3125
2023-05-05T10:41:14.360Z,921.8750
2023-05-05T10:42:43.745Z,905.3125
2023-05-05T10:44:12.945Z,903.1250
2023-05-05T10:45:43.588Z,910.9375
2023-05-05T10:47:14.247Z,905.6250
2023-05-05T10:48:45.739Z,899.0625
2023-05-05T10:50:14.561Z,891.5625
2023-05-05T10:51:43.886Z,904.0625
2023-05-05T10:53:15.198Z,917.1875
2023-05-05T10:54:45.885Z,927.1875
2023-05-05T10:56:16.724Z,934.0625
2023-05-05T10:57:47.904Z,928.4375
2023-05-05T10:59:18.184Z,937.8125
2023-05-05T11:00:47.539Z,955.0000
2023-05-05T11:02:16.865Z,970.6250
2023-05-05T11:03:47.396Z,982.5000
2023-05-05T11:05:18.804Z,1006.2500
2023-05-05T11:06:49.156Z,1018.4375
2023-05-05T11:08:18.521Z,1034.6875
2023-05-05T11:09:48.311Z,1035.9375
2023-05-05T11:11:18.559Z,1029.6875
2023-05-05T11:12:48.352Z,1023.7500
2023-05-05T11:14:17.667Z,1054.0625
2023-05-05T11:15:48.817Z,1071.8750
2023-05-05T11:17:18.175Z,1108.4375
2023-05-05T11:18:47.595Z,1159.0625
2023-05-05T11:20:17.020Z,1356.2500
2023-05-05T11:21:46.716Z,2481.8750
2023-05-05T11:23:16.772Z,2852.5000
2023-05-05T11:24:45.241Z,3263.1250
2023-05-05T11:26:14.456Z,3094.6875
2023-05-05T11:27:43.644Z,2943.7500
2023-05-05T11:29:13.884Z,3118.4375
2023-05-05T11:30:44.140Z,3356.2500
2023-05-05T11:32:13.647Z,3320.3125
2023-05-05T11:33:15.605Z,3259.5220
2023-05-05T11:34:45.703Z,3285.3125
2023-05-05T11:36:15.794Z,3168.1250
2023-05-05T11:37:44.900Z,3395.6250
2023-05-05T11:39:13.998Z,3274.6875
2023-05-05T11:40:43.019Z,3404.6875
2023-05-05T11:42:13.071Z,3613.1250
2023-05-05T11:43:43.212Z,3493.1250
2023-05-05T11:44:44.605Z,3421.6875
2023-05-05T11:46:16.236Z,3577.5000
2023-05-05T11:47:44.832Z,3712.5000
2023-05-05T11:49:13.812Z,3577.1875
2023-05-05T11:50:43.349Z,3099.0625
2023-05-05T11:52:12.432Z,2653.7500
2023-05-05T11:53:41.437Z,2583.1250
2023-05-05T11:55:10.496Z,2128.4375
2023-05-05T11:56:41.544Z,2360.6250
2023-05-05T11:58:10.586Z,1646.5625
2023-05-05T11:59:40.626Z,1292.5000
2023-05-05T12:01:10.724Z,1059.0625
2023-05-05T12:02:40.065Z,1037.1875
2023-05-05T12:04:10.104Z,1085.0000
2023-05-05T12:05:38.961Z,1230.3125
2023-05-05T12:07:09.101Z,1468.4375
2023-05-05T12:08:39.224Z,1607.8125
2023-05-05T12:10:08.631Z,2041.8750
2023-05-05T12:11:37.407Z,2399.6875
2023-05-05T12:13:06.563Z,2673.7500
2023-05-05T12:14:36.599Z,2574.3750
2023-05-05T12:16:06.754Z,2867.1875
2023-05-05T12:17:36.713Z,2673.7500
2023-05-05T12:19:05.741Z,2462.8125
2023-05-05T12:20:35.642Z,2038.7500
2023-05-05T12:22:04.683Z,2473.7500
2023-05-05T12:23:33.626Z,1934.0625
2023-05-05T12:25:03.604Z,2390.0000
2023-05-05T12:26:32.588Z,2705.0000
2023-05-05T12:28:01.494Z,2885.0000
2023-05-05T12:29:31.488Z,2425.6250
2023-05-05T12:31:01.629Z,1887.5000
2023-05-05T12:32:31.569Z,2888.7500
2023-05-05T12:34:01.624Z,3533.4375
2023-05-05T12:35:31.795Z,3225.6250
2023-05-05T12:37:01.611Z,2688.4375
2023-05-05T12:38:31.607Z,3327.8125
2023-05-05T12:40:00.496Z,3615.6250
2023-05-05T12:41:29.434Z,2469.3750
2023-05-05T12:42:59.364Z,2600.6250
2023-05-05T12:44:28.821Z,3320.0000
2023-05-05T12:45:58.885Z,3459.0625
2023-05-05T12:47:29.314Z,3560.0000
2023-05-05T12:48:59.754Z,3627.1875
2023-05-05T12:50:28.654Z,3744.3750
2023-05-05T12:51:57.639Z,3680.3125
2023-05-05T12:53:27.485Z,3740.6250
2023-05-05T12:54:57.376Z,4002.1875
2023-05-05T12:56:26.272Z,3643.1250
2023-05-05T12:57:56.184Z,3232.8125
2023-05-05T12:59:26.083Z,3253.7500
2023-05-05T13:00:56.459Z,2843.4375
2023-05-05T13:02:25.262Z,3049.6875
2023-05-05T13:03:54.126Z,3681.8750
2023-05-05T13:05:23.028Z,3950.0000
2023-05-05T13:06:53.512Z,4300.3125
2023-05-05T13:08:20.736Z,3744.0625
2023-05-05T13:09:50.565Z,4034.3750
2023-05-05T13:11:19.376Z,4310.9375
2023-05-05T13:12:48.186Z,3395.9375
2023-05-05T13:14:17.010Z,3257.1875
2023-05-05T13:15:46.846Z,1998.7500
2023-05-05T13:17:15.634Z,2754.3750
2023-05-05T13:18:45.487Z,2525.3125
2023-05-05T13:20:15.373Z,2408.1250
2023-05-05T13:21:44.252Z,2394.3750
2023-05-05T13:23:13.148Z,1951.2500
2023-05-05T13:24:50.605Z,2645.6250
2023-05-05T13:26:11.963Z,2910.6250
2023-05-05T13:27:40.921Z,2319.6875
2023-05-05T13:29:09.860Z,3236.8750
2023-05-05T13:30:38.746Z,4497.1875
2023-05-05T13:32:07.623Z,2633.1250
2023-05-05T13:33:36.480Z,3533.7500
2023-05-05T13:35:05.418Z,3626.2500
2023-05-05T13:36:35.275Z,3010.9375
2023-05-05T13:38:05.219Z,1875.9375
2023-05-05T13:39:35.086Z,1143.4375
2023-05-05T13:41:05.155Z,1208.7500
2023-05-05T13:42:33.978Z,1294.3750
2023-05-05T13:44:03.916Z,1413.7500
2023-05-05T13:45:33.895Z,1305.6250
2023-05-05T13:47:03.915Z,1021.2500
2023-05-05T13:48:32.864Z,961.8750
2023-05-05T13:50:01.907Z,914.6875
2023-05-05T13:51:31.852Z,889.3750
2023-05-05T13:53:00.894Z,946.8750
2023-05-05T13:54:29.859Z,1071.5625
2023-05-05T13:55:58.967Z,1207.1875
2023-05-05T13:57:30.145Z,1172.8125
2023-05-05T13:59:00.104Z,1170.9375
2023-05-05T14:00:29.197Z,1124.0625
2023-05-05T14:01:58.146Z,935.9375
2023-05-05T14:03:27.162Z,818.4375
2023-05-05T14:04:56.997Z,1003.7500
2023-05-05T14:06:26.424Z,817.5000
2023-05-05T14:07:56.430Z,712.8125
2023-05-05T14:09:25.597Z,714.6875
2023-05-05T14:10:55.727Z,700.0000
2023-05-05T14:12:25.827Z,706.2500
2023-05-05T14:13:55.995Z,697.5000
2023-05-05T14:15:25.851Z,672.1875
2023-05-05T14:16:55.784Z,637.8125
2023-05-05T14:18:25.503Z,603.4375
2023-05-05T14:19:56.396Z,560.0000
2023-05-05T14:21:25.799Z,514.3750
2023-05-05T14:22:54.980Z,471.5625
2023-05-05T14:24:25.425Z,426.8750
2023-05-05T14:25:54.569Z,385.9375
2023-05-05T14:27:23.833Z,0.0000
2023-05-05T14:28:53.585Z,322.5000
2023-05-05T14:30:22.935Z,297.8125
2023-05-05T14:31:52.357Z,270.9375
2023-05-05T14:33:21.602Z,249.3750
2023-05-05T14:34:50.856Z,232.1875
2023-05-05T14:36:21.104Z,223.4375
2023-05-05T14:37:50.353Z,215.6250
2023-05-05T14:39:19.504Z,204.6875
2023-05-05T14:40:48.688Z,191.5625
2023-05-05T14:42:17.946Z,178.4375
2023-05-05T14:43:47.138Z,167.1875
2023-05-05T14:45:17.417Z,157.8125
2023-05-05T14:46:48.551Z,153.1250
2023-05-05T14:48:16.918Z,0.0000
2023-05-05T14:49:47.209Z,0.0000
2023-05-05T14:51:16.873Z,0.0000
2023-05-05T14:52:46.133Z,0.0000
2023-05-05T14:54:26.935Z,0.0000
2023-05-05T14:55:47.006Z,0.0000
2023-05-05T14:57:18.079Z,0.0000
2023-05-05T14:58:49.471Z,0.0000
2023-05-05T15:00:18.246Z,0.0000
2023-05-05T15:01:47.649Z,0.0000
2023-05-05T15:03:18.686Z,0.0000
2023-05-05T15:04:50.337Z,0.0000
2023-05-05T15:06:19.743Z,0.0000
2023-05-05T15:07:51.355Z,0.0000
2023-05-05T15:09:21.056Z,0.0000
2023-05-05T15:10:52.158Z,0.0000
2023-05-05T15:12:21.993Z,0.0000
2023-05-05T15:13:53.570Z,0.0000
2023-05-05T15:15:23.117Z,0.0000
2023-05-05T15:16:53.130Z,0.0000
2023-05-05T15:18:21.990Z,0.0000
2023-05-05T15:19:53.308Z,0.0000
2023-05-05T15:21:23.334Z,0.0000
2023-05-05T15:22:54.328Z,0.0000
2023-05-05T15:24:25.133Z,0.0000
2023-05-05T15:25:54.959Z,0.0000
2023-05-05T15:27:25.281Z,0.0000
2023-05-05T15:28:54.649Z,0.0000
2023-05-05T15:30:25.541Z,0.0000
2023-05-05T15:31:56.865Z,0.0000
2023-05-05T15:33:29.053Z,0.0000
2023-05-05T15:35:00.570Z,207.1324
2023-05-05T15:36:29.399Z,224.6484
2023-05-05T15:37:59.406Z,230.6250
2023-05-05T15:39:29.667Z,235.5469
2023-05-05T15:40:31.871Z,243.9844
2023-05-05T15:41:34.535Z,247.8516
2023-05-05T15:42:35.726Z,254.8828
2023-05-05T15:44:07.932Z,273.0288
2023-05-05T15:49:17.992Z,262.8409
2023-05-05T15:50:45.976Z,198.2812
2023-05-05T15:52:14.778Z,170.4808
2023-05-05T16:10:55.818Z,870.2679
2023-05-05T16:11:58.930Z,862.5000
2023-05-05T16:13:29.769Z,839.1177
2023-05-05T16:14:59.909Z,835.8750
2023-05-05T16:16:32.297Z,814.2188
2023-05-05T16:18:01.543Z,759.7266
2023-05-05T16:19:32.546Z,710.4044
2023-05-05T16:21:03.126Z,650.7422
2023-05-05T16:22:05.744Z,648.9844
2023-05-05T16:23:35.737Z,667.5000
2023-05-05T16:25:04.953Z,655.3125
2023-05-05T16:26:08.485Z,625.0000
2023-05-05T16:27:37.111Z,582.0000
2023-05-05T16:28:39.526Z,568.4559
2023-05-05T16:30:09.576Z,564.7500
2023-05-05T16:31:38.191Z,562.8516
2023-05-05T16:33:07.137Z,571.2891
2023-05-05T16:34:39.062Z,610.3125
2023-05-05T16:36:08.215Z,665.1562
2023-05-05T16:37:40.375Z,619.4531
2023-05-05T16:39:11.102Z,494.2969
2023-05-05T16:40:39.836Z,360.0000
2023-05-05T16:41:41.513Z,335.3906
2023-05-05T16:43:14.250Z,320.9766
2023-05-05T16:44:46.707Z,295.1471
2023-05-05T16:46:15.635Z,254.2500
2023-05-05T16:47:46.080Z,229.1250
2023-05-05T16:49:15.885Z,229.5000
2023-05-05T16:50:18.755Z,246.4453
2023-05-05T16:51:48.330Z,282.0536
2023-05-05T16:52:49.342Z,305.0000
2023-05-05T16:53:51.663Z,305.4044
2023-05-05T16:55:23.280Z,273.1641
2023-05-05T16:56:56.989Z,249.6094
2023-05-05T16:58:24.185Z,239.4643
2023-05-05T16:59:54.267Z,220.1250
2023-05-05T17:01:25.731Z,192.7500
2023-05-05T17:02:57.057Z,171.0000
2023-05-05T17:04:27.793Z,165.7500
2023-05-05T17:05:58.566Z,157.5000
2023-05-05T17:07:02.276Z,156.1765
2023-05-05T17:08:33.752Z,143.2212
2023-05-05T17:09:35.679Z,140.6250
2023-05-05T17:11:05.376Z,145.8173
2023-05-05T17:12:08.507Z,151.5234
2023-05-05T17:13:08.828Z,162.7500
2023-05-05T17:14:13.193Z,171.5625
2023-05-05T17:27:38.330Z,196.8750
2023-05-05T17:28:38.287Z,196.8750
2023-05-05T17:31:10.408Z,199.0179
2023-05-05T17:41:30.768Z,0.0000
2023-05-05T17:45:07.540Z,137.0455
2023-05-05T17:52:55.416Z,0.0000
2023-05-05T17:57:32.654Z,0.0000
